Main page
METAR-TAF:

METAR-TAF

Airports :

Lea County Regional Airport

Hobbs, New Mexico, United States

latitude: 32-41N, longitude: 103-13W, elevation: 3657 ft

Current weather observation

The report was made 56 minutes ago, at 11:50 UTC
Wind 9 mph from the East/Northeast
Temperature 45°F
Humidity 93%
Pressure 30.37 in. Hg
Visibility: 5 miles
Broken clouds at a height of 500 ft
Overcast at a height of 1000 ft
light rain, mist

METAR: KHOB 181150Z 07008KT 5SM -RA BR BKN005 OVC010 07/06 A3037

Time: 06:46 (12:46 UTC)

Forecast

The report was made 1 hour and 20 minutes ago, at 11:26 UTC
Forecast valid from 18 at 12 UTC to 19 at 12 UTC
Wind 10 mph from the East/Northeast
Visibility: 3 miles
Overcast at a height of 600 ft
light rain, drizzle, mist
Temporary
from 18 at 12 UTC to 18 at 16 UTC
Visibility: 6 miles
Overcast at a height of 300 ft

TAF: KHOB 181126Z 1812/1912 06009KT 3SM -RADZ BR OVC006 TEMPO 1812/1816 P6SM NSW OVC003

Weather observations and forecasts of more than 4000 airports (METAR and TAF reports).

The available stations are represented by yellow and red dots on the map.

Hover mouse over dot to see the name of the station.

Then click to see weather observations and forecasts.

To change the map : click on the green buttons with a black cross to zoom in, on the green button with a dash to zoom out, or on the green arrows for adjacent maps.


METAR-TAF: